Terminal Aerodrome Forecast
Issued by NWS Caribou, ME

Home | Current Version | Previous Version | Text Only | Print | Product List | Glossary On
Versions: 1 2 3 4 5 6 7 8 9 10 11 12 13 14 15 16 17 18 19 20 21 22 23 24 25 26 27 28 29 30
000
FTUS41 KCAR 020400 AAC
TAFCAR
TAF AMD
KCAR 020427Z 0204/0224 14006KT P6SM VCSH OVC007
      TEMPO 0204/0206 5SM BR
     FM020600 14006KT 3SM BR OVC005
     FM021200 15007KT 5SM BR BKN008
     FM021400 16008KT P6SM BKN018
     FM021900 18011KT P6SM BKN035=

USA.gov is the U.S. government's official web portal to all federal, state and local government web resources and services.